Pagina principală
METAR-TAF:

METAR-TAF

Aeroporturi :

Paraburdoo, Australia

Latitudine: 23-10-17S, longitudine: 117-44-44E, elevație: 429 m

Observații meteo curente

Raportul a fost făcut în urmă cu 54 de minute, la 09:00 UTC
Vânt 10 kt de la Sud
Temperatură 37°C
Umiditate 14%
Presiune 1011 hPa
Vizibilitate de 10 km sau mai mult

METAR: YPBO 290900Z AUTO 17010KT 9999 // NCD 37/05 Q1011

Ora: 17:54 (09:54 UTC)


TAF: lipsă

Observații și prognoze meteo pentru peste 4.000 de aeroporturi (rapoarte METAR și TAF).

Stațiile disponibile sunt reprezentate pe hartă prin puncte galbene și roșii.

Țineți indicatorul mouse-ului pe punctul dorit pentru a vedea denumirea stației.

Apoi, faceți clic pentru a vedea observațiile și prognozele meteorologice.

Pentru a schimba harta: Pentru mărire, faceți clic pe butoanele verzi cu cruce neagră; pentru micșorare, pe butonul verde cu o liniuță; pentru hărți învecinate, pe săgețile verzi.


METAR-TAF: